createdAt,value
2019-05-13T00:01:53.819Z,1.97
2019-05-13T00:05:06.934Z,2.43
2019-05-13T00:08:21.855Z,2.53
2019-05-13T00:11:35.958Z,2.33
2019-05-13T00:14:49.805Z,2.23
2019-05-13T00:18:04.139Z,3.23
2019-05-13T00:21:17.782Z,2.07
2019-05-13T00:24:33.817Z,2.47
2019-05-13T00:27:46.849Z,2.50
2019-05-13T00:31:00.345Z,2.20
2019-05-13T00:34:14.345Z,2.23
2019-05-13T00:37:28.101Z,2.30
2019-05-13T00:40:44.078Z,2.50
2019-05-13T00:43:56.970Z,2.33
2019-05-13T00:47:13.129Z,2.13
2019-05-13T00:50:26.354Z,2.40
2019-05-13T00:53:40.636Z,3.00
2019-05-13T00:56:54.787Z,2.20
2019-05-13T01:00:09.093Z,2.40
2019-05-13T01:03:26.326Z,2.50
2019-05-13T01:06:38.282Z,2.40
2019-05-13T01:10:47.985Z,2.43
2019-05-13T01:14:04.082Z,2.20
2019-05-13T01:17:17.479Z,2.70
2019-05-13T01:20:31.259Z,2.20
2019-05-13T01:23:44.747Z,2.40
2019-05-13T01:26:58.370Z,2.10
2019-05-13T01:30:13.332Z,2.53
2019-05-13T01:33:27.058Z,2.00
2019-05-13T01:36:40.559Z,2.20
2019-05-13T01:39:54.203Z,1.80
2019-05-13T01:43:07.640Z,2.17
2019-05-13T01:46:21.135Z,2.37
2019-05-13T01:49:34.955Z,2.10
2019-05-13T01:52:48.450Z,2.30
2019-05-13T01:56:03.857Z,2.00
2019-05-13T01:59:17.643Z,2.60
2019-05-13T02:02:33.169Z,2.33
2019-05-13T02:05:46.624Z,2.40
2019-05-13T02:09:00.120Z,1.97
2019-05-13T02:12:13.719Z,2.00
2019-05-13T02:15:27.209Z,2.27
2019-05-13T02:18:40.699Z,2.60
2019-05-13T02:21:54.432Z,1.93
2019-05-13T02:25:08.175Z,2.33
2019-05-13T02:28:24.318Z,2.27
2019-05-13T02:31:47.578Z,2.40
2019-05-13T02:34:53.410Z,2.60
2019-05-13T02:38:19.770Z,2.70
2019-05-13T02:41:23.097Z,2.00
2019-05-13T02:44:36.565Z,2.40
2019-05-13T02:47:52.188Z,2.40
2019-05-13T02:51:05.999Z,2.50
2019-05-13T02:54:22.713Z,3.27
2019-05-13T02:57:35.413Z,3.00
2019-05-13T03:00:53.138Z,2.60
2019-05-13T03:04:04.389Z,2.50
2019-05-13T03:07:17.912Z,3.20
2019-05-13T03:10:33.077Z,2.40
2019-05-13T03:13:47.068Z,2.57
2019-05-13T03:17:12.853Z,2.47
2019-05-13T03:20:24.861Z,2.67
2019-05-13T03:23:38.651Z,2.50
2019-05-13T03:26:53.406Z,2.60
2019-05-13T03:30:07.276Z,2.50
2019-05-13T03:33:27.527Z,2.30
2019-05-13T03:36:37.385Z,2.47
2019-05-13T03:39:52.490Z,2.80
2019-05-13T03:43:08.013Z,2.10
2019-05-13T03:46:22.947Z,2.27
2019-05-13T03:49:42.373Z,2.70
2019-05-13T03:52:55.704Z,2.20
2019-05-13T03:56:12.555Z,2.30
2019-05-13T03:59:25.790Z,2.47
2019-05-13T04:02:42.710Z,2.20
2019-05-13T04:05:55.069Z,2.60
2019-05-13T04:09:22.424Z,2.53
2019-05-13T04:12:28.430Z,2.73
2019-05-13T04:15:42.832Z,2.37
2019-05-13T04:18:55.983Z,2.50
2019-05-13T04:22:12.619Z,2.50
2019-05-13T04:25:25.273Z,2.40
2019-05-13T04:28:39.162Z,2.47
2019-05-13T04:31:53.374Z,2.33
2019-05-13T04:35:07.085Z,2.63
2019-05-13T04:38:22.733Z,2.33
2019-05-13T04:41:36.779Z,1.93
2019-05-13T04:44:53.246Z,1.87
2019-05-13T04:48:05.871Z,2.17
2019-05-13T04:51:22.641Z,2.23
2019-05-13T04:54:35.448Z,2.77
2019-05-13T04:57:48.942Z,3.50
2019-05-13T05:01:52.193Z,2.03
2019-05-13T05:05:05.186Z,2.60
2019-05-13T05:08:47.554Z,2.33
2019-05-13T05:17:05.675Z,2.47
2019-05-13T05:20:42.809Z,2.50
2019-05-13T05:24:16.359Z,2.73
2019-05-13T05:28:21.799Z,2.27
2019-05-13T05:31:53.043Z,2.13
2019-05-13T05:35:54.830Z,2.23
2019-05-13T05:39:22.654Z,2.33
2019-05-13T05:42:38.391Z,2.03
2019-05-13T05:45:52.681Z,2.33
2019-05-13T05:49:09.037Z,2.33
2019-05-13T05:52:25.436Z,2.80
2019-05-13T05:55:41.250Z,3.00
2019-05-13T05:58:57.568Z,2.80
2019-05-13T06:02:15.716Z,2.47
2019-05-13T06:05:31.860Z,2.27
2019-05-13T06:08:45.593Z,2.10
2019-05-13T06:12:01.737Z,1.77
2019-05-13T06:15:15.561Z,1.90
2019-05-13T06:18:29.623Z,1.90
2019-05-13T06:21:43.361Z,1.83
2019-05-13T06:24:56.980Z,1.60
2019-05-13T06:28:12.408Z,1.93
2019-05-13T06:31:26.715Z,1.63
2019-05-13T06:34:41.518Z,1.40
2019-05-13T06:37:55.975Z,1.90
2019-05-13T06:41:13.992Z,1.47
2019-05-13T06:44:24.975Z,1.30
2019-05-13T06:47:38.584Z,1.20
2019-05-13T06:50:52.277Z,1.70
2019-05-13T06:54:05.838Z,1.40
2019-05-13T06:57:21.909Z,1.40
2019-05-13T07:00:35.357Z,1.60
2019-05-13T07:03:51.659Z,1.40
2019-05-13T07:07:13.270Z,1.40
2019-05-13T07:10:21.661Z,1.23
2019-05-13T07:13:35.457Z,1.10
2019-05-13T07:16:49.168Z,1.43
2019-05-13T07:20:03.350Z,1.80
2019-05-13T07:23:16.891Z,1.10
2019-05-13T07:26:31.459Z,1.83
2019-05-13T07:29:45.327Z,1.40
2019-05-13T07:32:58.823Z,1.40
2019-05-13T07:36:12.862Z,1.30
2019-05-13T07:39:27.251Z,1.13
2019-05-13T07:42:41.884Z,1.17
2019-05-13T07:45:55.552Z,7.17
2019-05-13T07:49:09.038Z,1.33
2019-05-13T07:52:22.910Z,1.30
2019-05-13T07:55:36.516Z,1.20
2019-05-13T07:58:52.340Z,1.30
2019-05-13T08:02:05.499Z,1.37
2019-05-13T08:05:19.203Z,0.97
2019-05-13T08:08:32.695Z,0.97
2019-05-13T08:12:04.299Z,1.03
2019-05-13T08:15:03.102Z,1.20
2019-05-13T08:18:17.407Z,1.07
2019-05-13T08:21:32.211Z,0.83
2019-05-13T08:24:46.032Z,1.07
2019-05-13T08:28:01.878Z,0.90
2019-05-13T08:31:15.280Z,0.90
2019-05-13T08:34:29.186Z,1.00
2019-05-13T08:37:43.228Z,1.00
2019-05-13T08:40:57.160Z,1.10
2019-05-13T08:44:12.327Z,0.90
2019-05-13T08:47:26.321Z,1.07
2019-05-13T08:50:41.777Z,0.83
2019-05-13T08:53:55.919Z,1.13
2019-05-13T08:57:11.594Z,1.17
2019-05-13T09:00:47.316Z,1.07
2019-05-13T09:04:02.448Z,0.97
2019-05-13T09:07:16.747Z,0.90
2019-05-13T09:10:31.888Z,1.07
2019-05-13T09:13:45.478Z,0.90
2019-05-13T09:17:01.657Z,1.00
2019-05-13T09:20:14.626Z,1.10
2019-05-13T09:23:28.132Z,1.13
2019-05-13T09:26:42.200Z,0.90
2019-05-13T09:29:55.904Z,0.93
2019-05-13T09:33:11.431Z,0.90
2019-05-13T09:36:24.881Z,1.00
2019-05-13T09:39:41.268Z,1.10
2019-05-13T09:42:55.355Z,1.20
2019-05-13T09:46:11.713Z,1.10
2019-05-13T09:49:24.793Z,0.70
2019-05-13T09:52:39.711Z,1.17
2019-05-13T09:55:54.127Z,0.80
2019-05-13T09:59:07.638Z,1.10
2019-05-13T10:02:21.525Z,0.97
2019-05-13T10:05:35.519Z,1.00
2019-05-13T10:08:49.013Z,1.20
2019-05-13T10:12:03.594Z,1.17
2019-05-13T10:15:17.414Z,0.90
2019-05-13T10:18:32.698Z,1.03
2019-05-13T10:21:46.757Z,1.00
2019-05-13T10:25:02.545Z,0.97
2019-05-13T10:28:16.639Z,0.90
2019-05-13T10:31:31.388Z,1.20
2019-05-13T10:34:46.087Z,0.90
2019-05-13T10:38:03.741Z,1.07
2019-05-13T10:41:15.575Z,1.10
2019-05-13T10:44:29.857Z,0.80
2019-05-13T10:47:43.962Z,1.10
2019-05-13T10:50:57.463Z,0.70
2019-05-13T10:54:11.145Z,0.97
2019-05-13T10:57:24.752Z,0.90
2019-05-13T11:00:48.025Z,0.80
2019-05-13T11:04:02.675Z,1.20
2019-05-13T11:07:16.329Z,1.03
2019-05-13T11:10:32.607Z,1.10
2019-05-13T11:13:55.282Z,0.87
2019-05-13T11:17:01.836Z,0.80
2019-05-13T11:20:15.501Z,1.70
2019-05-13T11:23:31.917Z,0.87
2019-05-13T11:26:44.486Z,1.00
2019-05-13T11:29:57.978Z,0.90
2019-05-13T11:33:11.588Z,0.80
2019-05-13T11:36:25.675Z,0.50
2019-05-13T11:39:39.487Z,0.77
2019-05-13T11:42:53.108Z,0.87
2019-05-13T11:46:06.696Z,0.70
2019-05-13T11:49:20.403Z,0.90
2019-05-13T11:52:33.937Z,0.80
2019-05-13T11:55:47.424Z,0.80
2019-05-13T11:59:04.207Z,1.07
2019-05-13T12:02:16.677Z,1.07
2019-05-13T12:05:32.636Z,0.77
2019-05-13T12:08:52.094Z,0.87
2019-05-13T12:12:03.318Z,0.83
2019-05-13T12:16:36.866Z,0.77
2019-05-13T12:19:53.997Z,0.90
2019-05-13T12:23:06.305Z,1.30
2019-05-13T12:26:23.466Z,0.90
2019-05-13T12:29:35.500Z,1.20
2019-05-13T12:32:51.361Z,1.00
2019-05-13T12:36:04.799Z,0.90
2019-05-13T12:39:18.530Z,1.50
2019-05-13T12:42:33.759Z,1.10
2019-05-13T12:45:47.512Z,0.90
2019-05-13T12:49:03.826Z,0.80
2019-05-13T12:52:16.816Z,0.80
2019-05-13T12:55:33.180Z,0.80
2019-05-13T12:58:46.606Z,0.90
2019-05-13T13:02:02.925Z,1.43
2019-05-13T13:05:20.261Z,0.83
2019-05-13T13:08:43.025Z,0.87
2019-05-13T13:11:46.760Z,0.90
2019-05-13T13:15:20.365Z,0.80
2019-05-13T13:18:15.860Z,0.90
2019-05-13T13:21:34.287Z,0.97
2019-05-13T13:24:51.692Z,0.90
2019-05-13T13:28:10.829Z,0.83
2019-05-13T13:31:15.767Z,0.60
2019-05-13T13:34:33.432Z,0.83
2019-05-13T13:37:45.796Z,0.80
2019-05-13T13:41:03.022Z,0.70
2019-05-13T13:44:15.285Z,0.77
2019-05-13T13:47:28.803Z,0.90
2019-05-13T13:53:57.725Z,0.70
2019-05-13T13:57:13.507Z,0.87
2019-05-13T14:00:38.631Z,1.00
2019-05-13T14:03:46.092Z,0.80
2019-05-13T14:06:58.943Z,0.77
2019-05-13T14:10:14.627Z,1.00
2019-05-13T14:13:28.313Z,0.93
2019-05-13T14:16:43.508Z,1.20
2019-05-13T14:19:58.385Z,0.80
2019-05-13T14:23:12.745Z,0.70
2019-05-13T14:26:26.593Z,0.70
2019-05-13T14:29:45.983Z,0.90
2019-05-13T14:32:55.830Z,1.00
2019-05-13T14:36:12.125Z,1.00
2019-05-13T14:39:25.393Z,0.67
2019-05-13T14:42:39.140Z,1.00
2019-05-13T14:45:52.880Z,0.60
2019-05-13T14:49:06.518Z,0.80
2019-05-13T14:52:22.205Z,0.80
2019-05-13T14:55:35.839Z,0.90
2019-05-13T14:58:52.077Z,1.17
2019-05-13T15:02:05.434Z,1.20
2019-05-13T15:05:21.905Z,0.90
2019-05-13T15:08:34.754Z,1.00
2019-05-13T15:11:48.265Z,1.10
2019-05-13T15:15:02.082Z,1.00
2019-05-13T15:18:16.109Z,0.83
2019-05-13T15:21:31.907Z,0.90
2019-05-13T15:24:45.601Z,1.07
2019-05-13T15:27:59.259Z,1.00
2019-05-13T15:31:13.033Z,1.13
2019-05-13T15:34:26.545Z,1.00
2019-05-13T15:37:41.813Z,0.90
2019-05-13T15:40:55.663Z,1.27
2019-05-13T15:44:11.404Z,1.10
2019-05-13T15:47:26.934Z,1.10
2019-05-13T15:50:42.176Z,1.67
2019-05-13T15:53:57.240Z,0.93
2019-05-13T15:57:11.886Z,0.93
2019-05-13T16:00:26.006Z,1.10
2019-05-13T16:03:41.571Z,0.93
2019-05-13T16:06:55.403Z,1.03
2019-05-13T16:10:11.339Z,0.90
2019-05-13T16:13:24.976Z,1.13
2019-05-13T16:16:41.439Z,1.10
2019-05-13T16:19:54.115Z,1.30
2019-05-13T16:23:07.815Z,1.20
2019-05-13T16:26:22.676Z,0.97
2019-05-13T16:29:36.374Z,1.07
2019-05-13T16:32:52.078Z,1.60
2019-05-13T16:36:06.099Z,1.03
2019-05-13T16:39:21.311Z,1.17
2019-05-13T16:42:35.021Z,0.93
2019-05-13T16:45:48.526Z,1.10
2019-05-13T16:49:02.145Z,1.50
2019-05-13T16:52:15.687Z,1.30
2019-05-13T16:55:29.616Z,1.27
2019-05-13T16:58:43.223Z,0.90
2019-05-13T17:01:57.053Z,1.03
2019-05-13T17:05:12.091Z,1.27
2019-05-13T17:08:25.983Z,1.13
2019-05-13T17:11:41.527Z,1.10
2019-05-13T17:15:02.971Z,1.17
2019-05-13T17:18:16.492Z,1.07
2019-05-13T17:21:31.672Z,1.00
2019-05-13T17:24:45.763Z,1.10
2019-05-13T17:27:59.306Z,1.17
2019-05-13T17:31:12.928Z,1.07
2019-05-13T17:34:26.535Z,1.20
2019-05-13T17:37:42.128Z,1.17
2019-05-13T17:40:55.824Z,1.20
2019-05-13T17:44:11.452Z,1.13
2019-05-13T17:47:24.875Z,1.50
2019-05-13T17:50:38.572Z,0.90
2019-05-13T17:53:52.251Z,1.10
2019-05-13T17:57:06.492Z,1.13
2019-05-13T18:00:21.568Z,1.00
2019-05-13T18:03:35.339Z,1.07
2019-05-13T18:07:08.802Z,1.10
2019-05-13T18:10:22.733Z,1.00
2019-05-13T18:13:36.400Z,1.10
2019-05-13T18:16:50.075Z,1.30
2019-05-13T18:20:03.990Z,1.10
2019-05-13T18:23:17.627Z,1.00
2019-05-13T18:26:32.013Z,1.20
2019-05-13T18:29:45.596Z,0.80
2019-05-13T18:33:01.265Z,0.77
2019-05-13T18:36:15.305Z,1.10
2019-05-13T18:39:29.157Z,0.90
2019-05-13T18:42:43.172Z,1.03
2019-05-13T18:45:56.975Z,1.00
2019-05-13T18:49:12.002Z,1.00
2019-05-13T18:52:26.275Z,1.30
2019-05-13T18:55:41.598Z,1.10
2019-05-13T18:58:55.808Z,1.30
2019-05-13T19:02:12.038Z,1.10
2019-05-13T19:05:25.949Z,1.33
2019-05-13T19:08:41.354Z,1.17
2019-05-13T19:11:55.834Z,2.47
2019-05-13T19:15:11.347Z,2.90
2019-05-13T19:18:25.217Z,1.90
2019-05-13T19:21:38.794Z,1.10
2019-05-13T19:24:52.412Z,1.20
2019-05-13T19:28:05.981Z,1.30
2019-05-13T19:31:21.962Z,1.20
2019-05-13T19:34:35.823Z,1.70
2019-05-13T19:37:51.568Z,1.40
2019-05-13T19:41:05.195Z,1.60
2019-05-13T19:44:18.845Z,1.90
2019-05-13T19:47:32.620Z,1.20
2019-05-13T19:50:47.148Z,2.63
2019-05-13T19:54:01.228Z,4.30
2019-05-13T19:57:15.155Z,10.17
2019-05-13T20:00:28.789Z,3.83
2019-05-13T20:03:42.535Z,2.77
2019-05-13T20:06:56.508Z,1.57
2019-05-13T20:10:11.879Z,1.60
2019-05-13T20:13:25.845Z,1.77
2019-05-13T20:16:41.534Z,2.70
2019-05-13T20:19:54.851Z,2.53
2019-05-13T20:23:08.504Z,1.50
2019-05-13T20:26:22.145Z,1.43
2019-05-13T20:29:35.903Z,1.27
2019-05-13T20:32:51.502Z,36.90
2019-05-13T20:36:05.105Z,55.77
2019-05-13T20:39:18.985Z,51.83
2019-05-13T20:42:32.644Z,75.07
2019-05-13T20:45:46.384Z,63.77
2019-05-13T20:49:00.653Z,76.07
2019-05-13T20:52:15.470Z,50.70
2019-05-13T20:55:29.169Z,18.33
2019-05-13T20:58:42.710Z,44.27
2019-05-13T21:01:56.353Z,32.80
2019-05-13T21:05:12.140Z,20.37
2019-05-13T21:08:26.208Z,28.43
2019-05-13T21:11:41.755Z,22.63
2019-05-13T21:16:42.211Z,15.27
2019-05-13T21:20:01.148Z,13.20
2019-05-13T21:23:11.483Z,10.57
2019-05-13T21:26:25.023Z,13.50
2019-05-13T21:29:38.667Z,18.40
2019-05-13T21:32:52.531Z,4.17
2019-05-13T21:36:06.285Z,9.43
2019-05-13T21:39:21.395Z,6.13
2019-05-13T21:42:35.309Z,8.93
2019-05-13T21:45:49.052Z,13.83
2019-05-13T21:49:02.857Z,16.00
2019-05-13T21:52:16.355Z,21.90
2019-05-13T21:55:30.206Z,6.23
2019-05-13T21:58:43.838Z,4.40
2019-05-13T22:01:57.831Z,4.37
2019-05-13T22:05:11.827Z,4.10
2019-05-13T22:08:25.761Z,5.70
2019-05-13T22:11:41.789Z,4.50
2019-05-13T22:14:55.319Z,6.87
2019-05-13T22:18:11.160Z,8.50
2019-05-13T22:21:24.504Z,10.87
2019-05-13T22:24:38.043Z,7.60
2019-05-13T22:27:52.043Z,4.97
2019-05-13T22:31:06.501Z,3.30
2019-05-13T22:34:21.201Z,3.17
2019-05-13T22:37:34.920Z,2.00
2019-05-13T22:40:48.553Z,7.37
2019-05-13T22:44:02.258Z,6.40
2019-05-13T22:47:15.990Z,9.60
2019-05-13T22:50:31.030Z,4.73
2019-05-13T22:53:44.761Z,3.87
2019-05-13T22:56:58.306Z,6.97
2019-05-13T23:00:12.491Z,2.13
2019-05-13T23:03:26.421Z,1.90
2019-05-13T23:06:39.946Z,3.33
2019-05-13T23:09:53.780Z,2.87
2019-05-13T23:13:07.345Z,3.17
2019-05-13T23:16:22.194Z,3.40
2019-05-13T23:19:35.923Z,2.93
2019-05-13T23:22:51.712Z,3.03
2019-05-13T23:26:05.068Z,2.60
2019-05-13T23:29:18.601Z,2.53
2019-05-13T23:32:32.223Z,2.37
2019-05-13T23:35:46.043Z,1.90
2019-05-13T23:39:01.016Z,2.13
2019-05-13T23:42:14.597Z,1.77
2019-05-13T23:45:28.115Z,1.40
2019-05-13T23:48:41.707Z,2.27
2019-05-13T23:51:55.209Z,1.90
2019-05-13T23:55:11.032Z,1.97
2019-05-13T23:58:25.433Z,2.20
